Bath, Illinois
Current Conditions -  °F | °C
As of 12:15 AM on Tuesday 21 Oct 2014 (Local Time) from KIJX Reporting Station
Clear Clear  
Wind Chill: 51°   Ceiling: Unl
Heat Index: 51°   Visibility: 10mi
Dew Point: 44°   Wind: 6mph
Humidity: 76%   Direction: 280°W
Pressure: 30.01"   Gusts: NA
Location:  40.19°N, 90.14°W
Report Text: KIJX 210515Z AUTO 28005KT 10SM CLR 11/07 A3001 RMK AO2 T01070066
Loading
Personal Weather Stations






























Interactive Weather Map New forecast layout! Learn more

10-Day Weather Forecast

Advertisements
Track Severe Weather on mobile